createdAt,value
2019-03-23T00:01:03.282Z,4.60
2019-03-23T00:02:10.503Z,4.60
2019-03-23T00:03:17.266Z,4.60
2019-03-23T00:04:25.426Z,4.60
2019-03-23T00:05:32.173Z,4.60
2019-03-23T00:06:40.036Z,4.70
2019-03-23T00:07:46.643Z,4.60
2019-03-23T00:08:53.296Z,4.60
2019-03-23T00:09:59.927Z,4.70
2019-03-23T00:11:06.845Z,4.70
2019-03-23T00:12:14.606Z,4.70
2019-03-23T00:13:21.356Z,4.70
2019-03-23T00:14:28.034Z,4.60
2019-03-23T00:15:34.777Z,4.70
2019-03-23T00:16:41.805Z,4.70
2019-03-23T00:17:48.302Z,4.70
2019-03-23T00:18:55.216Z,4.70
2019-03-23T00:20:01.724Z,4.60
2019-03-23T00:21:08.327Z,4.60
2019-03-23T00:22:15.095Z,4.60
2019-03-23T00:23:21.604Z,4.60
2019-03-23T00:24:28.066Z,4.50
2019-03-23T00:25:34.353Z,4.50
2019-03-23T00:26:40.972Z,4.50
2019-03-23T00:27:47.557Z,4.50
2019-03-23T00:28:54.194Z,4.50
2019-03-23T00:30:00.789Z,4.50
2019-03-23T00:31:07.362Z,4.50
2019-03-23T00:32:13.933Z,4.60
2019-03-23T00:33:20.453Z,4.60
2019-03-23T00:34:27.215Z,4.60
2019-03-23T00:35:33.855Z,4.50
2019-03-23T00:36:41.717Z,4.50
2019-03-23T00:37:48.651Z,4.50
2019-03-23T00:38:55.123Z,4.60
2019-03-23T00:40:01.889Z,4.60
2019-03-23T00:41:09.496Z,4.60
2019-03-23T00:42:16.124Z,4.60
2019-03-23T00:43:22.705Z,4.60
2019-03-23T00:44:29.313Z,4.60
2019-03-23T00:45:37.112Z,4.60
2019-03-23T00:46:43.703Z,4.50
2019-03-23T00:47:50.454Z,4.50
2019-03-23T00:48:56.844Z,4.50
2019-03-23T00:50:03.477Z,4.50
2019-03-23T00:51:10.160Z,4.50
2019-03-23T00:52:16.755Z,4.50
2019-03-23T00:53:23.263Z,4.50
2019-03-23T00:54:30.113Z,4.50
2019-03-23T00:55:36.722Z,4.50
2019-03-23T00:56:43.482Z,4.50
2019-03-23T00:57:50.391Z,4.50
2019-03-23T00:58:57.094Z,4.50
2019-03-23T01:00:03.376Z,4.50
2019-03-23T01:01:10.846Z,4.40
2019-03-23T01:02:18.619Z,4.40
2019-03-23T01:03:25.284Z,4.30
2019-03-23T01:04:32.353Z,4.20
2019-03-23T01:05:39.079Z,4.30
2019-03-23T01:06:52.082Z,4.20
2019-03-23T01:07:53.846Z,4.10
2019-03-23T01:09:00.585Z,4.10
2019-03-23T01:10:10.417Z,4.10
2019-03-23T01:11:17.007Z,4.20
2019-03-23T01:12:23.758Z,4.20
2019-03-23T01:13:30.302Z,4.30
2019-03-23T01:14:36.890Z,4.30
2019-03-23T01:15:43.493Z,4.30
2019-03-23T01:16:50.145Z,4.30
2019-03-23T01:17:56.733Z,4.40
2019-03-23T01:19:03.333Z,4.40
2019-03-23T01:20:10.710Z,4.30
2019-03-23T01:21:17.273Z,4.30
2019-03-23T01:22:23.954Z,4.30
2019-03-23T01:23:30.576Z,4.30
2019-03-23T01:24:37.205Z,4.30
2019-03-23T01:25:44.826Z,4.30
2019-03-23T01:26:51.453Z,4.30
2019-03-23T01:27:58.221Z,4.30
2019-03-23T01:29:04.873Z,4.30
2019-03-23T01:30:12.016Z,4.20
2019-03-23T01:31:18.744Z,4.20
2019-03-23T01:32:25.362Z,4.20
2019-03-23T01:33:31.906Z,4.10
2019-03-23T01:34:38.574Z,4.10
2019-03-23T01:35:44.937Z,4.00
2019-03-23T01:36:51.559Z,4.00
2019-03-23T01:37:58.504Z,4.10
2019-03-23T01:39:06.390Z,4.10
2019-03-23T01:40:13.190Z,4.10
2019-03-23T01:41:19.983Z,4.10
2019-03-23T01:42:26.633Z,4.10
2019-03-23T01:43:33.110Z,4.00
2019-03-23T01:44:39.786Z,4.00
2019-03-23T01:45:46.428Z,4.00
2019-03-23T01:46:53.169Z,4.00
2019-03-23T01:47:59.906Z,4.00
2019-03-23T01:49:06.471Z,3.90
2019-03-23T01:50:13.276Z,3.90
2019-03-23T01:51:20.262Z,4.00
2019-03-23T01:52:26.994Z,3.90
2019-03-23T01:53:33.753Z,4.00
2019-03-23T01:54:40.473Z,3.90
2019-03-23T01:55:46.899Z,3.90
2019-03-23T01:56:53.491Z,3.90
2019-03-23T01:58:00.137Z,3.90
2019-03-23T01:59:06.783Z,4.00
2019-03-23T02:00:13.895Z,3.90
2019-03-23T02:01:20.548Z,4.00
2019-03-23T02:02:27.173Z,3.90
2019-03-23T02:03:33.763Z,3.90
2019-03-23T02:04:40.621Z,3.90
2019-03-23T02:05:47.193Z,3.90
2019-03-23T02:06:53.855Z,4.00
2019-03-23T02:08:00.423Z,3.90
2019-03-23T02:09:08.576Z,3.90
2019-03-23T02:10:15.147Z,3.90
2019-03-23T02:11:21.784Z,3.90
2019-03-23T02:12:28.294Z,3.90
2019-03-23T02:13:34.846Z,3.80
2019-03-23T02:14:41.499Z,3.80
2019-03-23T02:15:48.084Z,3.80
2019-03-23T02:16:54.801Z,3.80
2019-03-23T02:18:01.438Z,3.70
2019-03-23T02:19:07.973Z,3.70
2019-03-23T02:20:14.702Z,3.70
2019-03-23T02:21:21.334Z,3.70
2019-03-23T02:22:27.833Z,3.70
2019-03-23T02:23:34.474Z,3.70
2019-03-23T02:24:41.124Z,3.70
2019-03-23T02:25:47.826Z,3.70
2019-03-23T02:26:54.973Z,3.70
2019-03-23T02:28:01.555Z,3.70
2019-03-23T02:29:08.113Z,3.70
2019-03-23T02:30:14.789Z,3.70
2019-03-23T02:31:21.560Z,3.60
2019-03-23T02:32:28.138Z,3.50
2019-03-23T02:33:34.695Z,3.50
2019-03-23T02:34:41.324Z,3.50
2019-03-23T02:35:47.833Z,3.50
2019-03-23T02:36:54.483Z,3.50
2019-03-23T02:38:01.155Z,3.40
2019-03-23T02:39:08.495Z,3.40
2019-03-23T02:40:15.175Z,3.40
2019-03-23T02:41:21.816Z,3.40
2019-03-23T02:42:28.504Z,3.40
2019-03-23T02:43:35.146Z,3.50
2019-03-23T02:44:41.916Z,3.50
2019-03-23T02:45:48.626Z,3.50
2019-03-23T02:46:55.157Z,3.60
2019-03-23T02:48:01.776Z,3.50
2019-03-23T02:49:08.397Z,3.50
2019-03-23T02:50:15.119Z,3.50
2019-03-23T02:51:21.655Z,3.50
2019-03-23T02:52:28.227Z,3.60
2019-03-23T02:53:34.901Z,3.50
2019-03-23T02:54:41.655Z,3.50
2019-03-23T02:55:48.278Z,3.50
2019-03-23T02:56:54.874Z,3.60
2019-03-23T02:58:01.374Z,3.60
2019-03-23T02:59:07.735Z,3.60
2019-03-23T03:00:14.715Z,3.50
2019-03-23T03:01:21.444Z,3.50
2019-03-23T03:02:28.302Z,3.50
2019-03-23T03:03:35.159Z,3.60
2019-03-23T03:04:41.845Z,3.50
2019-03-23T03:05:48.515Z,3.50
2019-03-23T03:06:55.391Z,3.50
2019-03-23T03:08:01.996Z,3.40
2019-03-23T03:09:08.669Z,3.50
2019-03-23T03:10:21.664Z,3.50
2019-03-23T03:11:28.398Z,3.50
2019-03-23T03:12:35.006Z,3.50
2019-03-23T03:13:41.559Z,3.50
2019-03-23T03:14:48.245Z,3.50
2019-03-23T03:15:55.915Z,3.40
2019-03-23T03:17:02.424Z,3.50
2019-03-23T03:18:09.616Z,3.50
2019-03-23T03:19:16.216Z,3.40
2019-03-23T03:20:22.599Z,3.50
2019-03-23T03:21:28.939Z,3.50
2019-03-23T03:22:36.511Z,3.40
2019-03-23T03:23:43.948Z,3.50
2019-03-23T03:24:50.483Z,3.40
2019-03-23T03:25:58.785Z,3.40
2019-03-23T03:27:05.544Z,3.40
2019-03-23T03:28:12.129Z,3.40
2019-03-23T03:29:18.753Z,3.30
2019-03-23T03:30:25.337Z,3.20
2019-03-23T03:31:31.854Z,3.20
2019-03-23T03:32:38.415Z,3.30
2019-03-23T03:33:45.313Z,3.30
2019-03-23T03:34:52.049Z,3.30
2019-03-23T03:35:58.618Z,3.40
2019-03-23T03:37:05.168Z,3.40
2019-03-23T03:38:11.664Z,3.40
2019-03-23T03:39:18.461Z,3.40
2019-03-23T03:40:25.095Z,3.40
2019-03-23T03:41:31.737Z,3.40
2019-03-23T03:42:38.452Z,3.40
2019-03-23T03:43:44.736Z,3.40
2019-03-23T03:44:51.287Z,3.40
2019-03-23T03:45:58.868Z,3.40
2019-03-23T03:47:05.338Z,3.40
2019-03-23T03:48:11.802Z,3.40
2019-03-23T03:49:18.373Z,3.40
2019-03-23T03:50:24.988Z,3.40
2019-03-23T03:51:31.490Z,3.40
2019-03-23T03:52:38.053Z,3.40
2019-03-23T03:53:44.725Z,3.40
2019-03-23T03:54:51.285Z,3.40
2019-03-23T03:55:57.666Z,3.40
2019-03-23T03:57:04.178Z,3.40
2019-03-23T03:58:10.656Z,3.40
2019-03-23T03:59:17.191Z,3.40
2019-03-23T04:00:23.761Z,3.40
2019-03-23T04:01:30.418Z,3.40
2019-03-23T04:02:36.903Z,3.40
2019-03-23T04:03:43.659Z,3.30
2019-03-23T04:04:50.383Z,3.30
2019-03-23T04:05:56.912Z,3.30
2019-03-23T04:07:03.405Z,3.40
2019-03-23T04:08:11.564Z,3.30
2019-03-23T04:09:17.647Z,3.40
2019-03-23T04:10:24.367Z,3.40
2019-03-23T04:11:30.903Z,3.40
2019-03-23T04:12:37.849Z,3.30
2019-03-23T04:13:45.480Z,3.30
2019-03-23T04:14:52.014Z,3.20
2019-03-23T04:15:58.642Z,3.20
2019-03-23T04:17:05.264Z,3.20
2019-03-23T04:18:11.987Z,3.20
2019-03-23T04:19:18.675Z,3.30
2019-03-23T04:20:24.996Z,3.30
2019-03-23T04:21:31.703Z,3.40
2019-03-23T04:22:38.361Z,3.30
2019-03-23T04:23:44.873Z,3.30
2019-03-23T04:24:52.444Z,3.20
2019-03-23T04:25:59.085Z,3.30
2019-03-23T04:27:06.686Z,3.30
2019-03-23T04:28:13.128Z,3.30
2019-03-23T04:29:19.777Z,3.30
2019-03-23T04:30:26.432Z,3.30
2019-03-23T04:31:33.151Z,3.30
2019-03-23T04:32:39.467Z,3.30
2019-03-23T04:33:46.023Z,3.30
2019-03-23T04:34:52.651Z,3.30
2019-03-23T04:35:59.197Z,3.30
2019-03-23T04:37:06.013Z,3.30
2019-03-23T04:38:22.256Z,3.30
2019-03-23T04:39:20.793Z,3.30
2019-03-23T04:40:27.359Z,3.30
2019-03-23T04:41:33.869Z,3.30
2019-03-23T04:42:40.370Z,3.30
2019-03-23T04:43:47.024Z,3.30
2019-03-23T04:44:53.596Z,3.30
2019-03-23T04:46:00.257Z,3.30
2019-03-23T04:47:06.968Z,3.30
2019-03-23T04:48:13.677Z,3.30
2019-03-23T04:49:20.276Z,3.30
2019-03-23T04:50:26.763Z,3.30
2019-03-23T04:51:33.613Z,3.20
2019-03-23T04:52:40.303Z,3.20
2019-03-23T04:53:46.874Z,3.20
2019-03-23T04:54:53.714Z,3.20
2019-03-23T04:56:00.176Z,3.30
2019-03-23T04:57:06.825Z,3.30
2019-03-23T04:58:13.369Z,3.30
2019-03-23T04:59:19.884Z,3.30
2019-03-23T05:00:26.486Z,3.30
2019-03-23T05:01:33.239Z,3.20
2019-03-23T05:02:39.933Z,3.30
2019-03-23T05:03:46.427Z,3.20
2019-03-23T05:04:53.093Z,3.30
2019-03-23T05:06:00.007Z,3.30
2019-03-23T05:07:06.400Z,3.30
2019-03-23T05:08:13.171Z,3.30
2019-03-23T05:09:19.486Z,3.30
2019-03-23T05:10:26.319Z,3.30
2019-03-23T05:11:32.953Z,3.30
2019-03-23T05:12:39.698Z,3.30
2019-03-23T05:13:46.671Z,3.30
2019-03-23T05:14:53.244Z,3.30
2019-03-23T05:16:00.103Z,3.30
2019-03-23T05:17:06.690Z,3.30
2019-03-23T05:18:13.515Z,3.30
2019-03-23T05:19:19.979Z,3.20
2019-03-23T05:20:33.628Z,3.30
2019-03-23T05:21:40.418Z,3.30
2019-03-23T05:22:46.962Z,3.30
2019-03-23T05:23:53.579Z,3.40
2019-03-23T05:25:00.340Z,3.30
2019-03-23T05:26:06.955Z,3.30
2019-03-23T05:27:13.569Z,3.30
2019-03-23T05:28:20.057Z,3.30
2019-03-23T05:29:26.743Z,3.40
2019-03-23T05:30:33.354Z,3.40
2019-03-23T05:31:39.694Z,3.30
2019-03-23T05:32:46.434Z,3.30
2019-03-23T05:33:53.110Z,3.30
2019-03-23T05:34:59.736Z,3.30
2019-03-23T05:36:06.472Z,3.30
2019-03-23T05:37:13.106Z,3.40
2019-03-23T05:38:19.752Z,3.40
2019-03-23T05:39:26.496Z,3.40
2019-03-23T05:40:33.270Z,3.40
2019-03-23T05:41:39.967Z,3.50
2019-03-23T05:42:46.614Z,3.50
2019-03-23T05:43:53.066Z,3.60
2019-03-23T05:44:59.677Z,3.60
2019-03-23T05:46:06.287Z,3.70
2019-03-23T05:47:12.945Z,3.80
2019-03-23T05:48:19.460Z,3.90
2019-03-23T05:49:26.064Z,4.00
2019-03-23T05:50:32.771Z,4.10
2019-03-23T05:51:39.274Z,4.10
2019-03-23T05:52:46.096Z,4.10
2019-03-23T05:53:52.526Z,4.20
2019-03-23T05:54:58.876Z,4.30
2019-03-23T05:56:05.710Z,4.30
2019-03-23T05:57:12.756Z,4.40
2019-03-23T05:58:19.510Z,4.50
2019-03-23T05:59:27.213Z,4.50
2019-03-23T06:00:33.829Z,4.70
2019-03-23T06:01:40.396Z,4.70
2019-03-23T06:02:46.992Z,4.80
2019-03-23T06:03:53.771Z,4.90
2019-03-23T06:05:01.319Z,4.90
2019-03-23T06:06:07.989Z,4.90
2019-03-23T06:07:14.563Z,5.00
2019-03-23T06:08:21.207Z,5.10
2019-03-23T06:09:27.915Z,5.20
2019-03-23T06:10:34.421Z,5.30
2019-03-23T06:11:41.165Z,5.40
2019-03-23T06:12:47.935Z,5.40
2019-03-23T06:13:54.775Z,5.50
2019-03-23T06:15:01.518Z,5.60
2019-03-23T06:16:08.032Z,5.70
2019-03-23T06:17:14.670Z,5.70
2019-03-23T06:18:20.887Z,5.80
2019-03-23T06:19:27.858Z,5.80
2019-03-23T06:20:34.426Z,5.90
2019-03-23T06:21:42.675Z,6.10
2019-03-23T06:22:49.603Z,6.10
2019-03-23T06:23:56.471Z,6.20
2019-03-23T06:25:03.254Z,6.20
2019-03-23T06:26:10.000Z,6.20
2019-03-23T06:27:16.667Z,6.30
2019-03-23T06:28:23.270Z,6.40
2019-03-23T06:29:29.587Z,6.50
2019-03-23T06:30:36.542Z,6.50
2019-03-23T06:31:43.281Z,6.50
2019-03-23T06:32:50.210Z,6.50
2019-03-23T06:33:56.753Z,6.60
2019-03-23T06:35:03.490Z,6.70
2019-03-23T06:36:09.997Z,6.70
2019-03-23T06:37:16.839Z,6.70
2019-03-23T06:38:23.433Z,6.80
2019-03-23T06:39:30.104Z,6.80
2019-03-23T06:40:36.785Z,6.90
2019-03-23T06:41:43.247Z,6.90
2019-03-23T06:42:59.381Z,6.90
2019-03-23T06:43:58.193Z,7.00
2019-03-23T06:45:05.353Z,7.10
2019-03-23T06:46:12.116Z,7.10
2019-03-23T06:47:18.692Z,7.20
2019-03-23T06:48:25.373Z,7.30
2019-03-23T06:49:31.862Z,7.30
2019-03-23T06:50:38.479Z,7.40
2019-03-23T06:51:45.452Z,7.40
2019-03-23T06:52:55.898Z,7.40
2019-03-23T06:54:02.722Z,7.50
2019-03-23T06:55:09.536Z,7.50
2019-03-23T06:56:16.090Z,7.60
2019-03-23T06:57:22.983Z,7.60
2019-03-23T06:58:29.493Z,7.70
2019-03-23T06:59:36.126Z,7.60
2019-03-23T07:00:42.734Z,7.70
2019-03-23T07:01:49.344Z,7.80
2019-03-23T07:02:55.825Z,7.80
2019-03-23T07:04:02.119Z,7.70
2019-03-23T07:05:09.746Z,7.80
2019-03-23T07:06:16.374Z,7.90
2019-03-23T07:07:23.106Z,7.90
2019-03-23T07:08:32.228Z,7.90
2019-03-23T07:09:38.149Z,8.00
2019-03-23T07:10:44.788Z,8.00
2019-03-23T07:11:51.313Z,8.00
2019-03-23T07:12:57.894Z,8.00
2019-03-23T07:14:04.624Z,8.00
2019-03-23T07:15:19.353Z,8.00
2019-03-23T07:16:19.608Z,8.00
2019-03-23T07:17:26.118Z,8.10
2019-03-23T07:18:32.709Z,8.20
2019-03-23T07:19:39.423Z,8.20
2019-03-23T07:20:48.190Z,8.40
2019-03-23T07:21:54.811Z,8.40
2019-03-23T07:23:01.469Z,8.40
2019-03-23T07:24:08.144Z,8.40
2019-03-23T07:25:14.853Z,8.50
2019-03-23T07:26:21.307Z,8.50
2019-03-23T07:27:28.567Z,8.60
2019-03-23T07:28:35.145Z,8.70
2019-03-23T07:29:41.893Z,8.70
2019-03-23T07:30:48.415Z,8.70
2019-03-23T07:32:05.249Z,8.70
2019-03-23T07:33:03.430Z,8.70
2019-03-23T07:34:11.002Z,8.70
2019-03-23T07:35:17.726Z,8.70
2019-03-23T07:36:24.298Z,8.70
2019-03-23T07:37:30.836Z,8.70
2019-03-23T07:38:37.210Z,8.80
2019-03-23T07:39:43.859Z,8.80
2019-03-23T07:40:50.483Z,8.90
2019-03-23T07:41:57.119Z,9.00
2019-03-23T07:43:03.685Z,9.10
2019-03-23T07:44:10.221Z,9.20
2019-03-23T07:45:17.194Z,9.30
2019-03-23T07:46:23.931Z,9.40
2019-03-23T07:47:30.423Z,9.70
2019-03-23T07:48:37.104Z,10.40
2019-03-23T07:49:43.685Z,11.20
2019-03-23T07:50:49.982Z,11.80
2019-03-23T07:51:57.796Z,12.10
2019-03-23T07:53:04.546Z,12.50
2019-03-23T07:54:11.100Z,12.80
2019-03-23T07:55:17.815Z,13.00
2019-03-23T07:56:24.643Z,13.20
2019-03-23T07:57:31.310Z,13.10
2019-03-23T07:58:38.210Z,13.10
2019-03-23T07:59:44.906Z,13.20
2019-03-23T08:00:51.723Z,13.40
2019-03-23T08:01:58.170Z,13.80
2019-03-23T08:03:04.858Z,14.50
2019-03-23T08:04:11.377Z,15.20
2019-03-23T08:05:19.059Z,15.50
2019-03-23T08:06:25.617Z,16.30
2019-03-23T08:07:32.204Z,15.90
2019-03-23T08:08:38.754Z,15.10
2019-03-23T08:09:45.202Z,14.40
2019-03-23T08:10:51.761Z,14.20
2019-03-23T08:11:58.201Z,14.00
2019-03-23T08:13:04.994Z,13.40
2019-03-23T08:14:11.297Z,13.00
2019-03-23T08:15:17.906Z,12.60
2019-03-23T08:16:24.491Z,12.90
2019-03-23T08:17:31.425Z,14.40
2019-03-23T08:18:37.972Z,15.70
2019-03-23T08:19:44.532Z,16.30
2019-03-23T08:20:51.133Z,17.00
2019-03-23T08:21:59.106Z,17.50
2019-03-23T08:23:05.851Z,17.70
2019-03-23T08:24:12.622Z,18.10
2019-03-23T08:25:19.250Z,18.30
2019-03-23T08:26:25.976Z,18.90
2019-03-23T08:27:32.913Z,19.50
2019-03-23T08:28:39.470Z,19.30
2019-03-23T08:29:46.198Z,19.70
2019-03-23T08:30:52.830Z,20.10
2019-03-23T08:31:59.232Z,20.30
2019-03-23T08:33:05.720Z,20.70
2019-03-23T08:34:12.475Z,21.10
2019-03-23T08:35:19.183Z,21.50
2019-03-23T08:36:26.020Z,21.80
2019-03-23T08:37:32.530Z,21.70
2019-03-23T08:38:39.156Z,21.40
2019-03-23T08:39:48.730Z,21.60
2019-03-23T08:40:54.115Z,22.10
2019-03-23T08:42:00.734Z,22.10
2019-03-23T08:43:07.250Z,23.10
2019-03-23T08:44:13.837Z,23.40
2019-03-23T08:45:20.599Z,23.10
2019-03-23T08:46:27.662Z,23.50
2019-03-23T08:47:34.247Z,23.60
2019-03-23T08:48:40.894Z,22.90
2019-03-23T08:49:47.278Z,23.40
2019-03-23T08:50:54.128Z,23.40
2019-03-23T08:52:00.665Z,23.90
2019-03-23T08:53:07.208Z,24.90
2019-03-23T08:54:13.914Z,24.40
2019-03-23T08:55:21.959Z,24.50
2019-03-23T08:56:29.139Z,24.50
2019-03-23T08:57:35.921Z,23.90
2019-03-23T08:58:39.975Z,23.60
2019-03-23T08:59:46.553Z,24.30
2019-03-23T09:00:53.118Z,24.00
2019-03-23T09:01:59.775Z,24.10
2019-03-23T09:03:06.448Z,24.40
2019-03-23T09:04:13.909Z,24.40
2019-03-23T09:05:20.600Z,25.10
2019-03-23T09:06:27.124Z,25.00
2019-03-23T09:07:33.986Z,25.40
2019-03-23T09:08:40.477Z,25.50
2019-03-23T09:09:47.100Z,25.10
2019-03-23T09:10:54.213Z,24.40
2019-03-23T09:12:00.641Z,23.80
2019-03-23T09:13:07.097Z,23.40
2019-03-23T09:14:13.844Z,24.90
2019-03-23T09:15:20.525Z,25.00
2019-03-23T09:16:27.212Z,25.50
2019-03-23T09:17:33.679Z,24.60
2019-03-23T09:18:40.400Z,22.70
2019-03-23T09:19:46.907Z,20.70
2019-03-23T09:20:53.786Z,19.40
2019-03-23T09:22:00.456Z,18.80
2019-03-23T09:23:06.985Z,18.00
2019-03-23T09:24:14.561Z,17.60
2019-03-23T09:25:20.879Z,17.20
2019-03-23T09:26:27.679Z,16.80
2019-03-23T09:27:34.165Z,16.40
2019-03-23T09:28:40.937Z,16.20
2019-03-23T09:29:47.635Z,16.10
2019-03-23T09:30:54.124Z,16.20
2019-03-23T09:32:00.801Z,16.10
2019-03-23T09:33:07.599Z,15.70
2019-03-23T09:34:14.283Z,15.50
2019-03-23T09:35:20.945Z,15.50
2019-03-23T09:36:27.630Z,15.20
2019-03-23T09:37:37.973Z,15.30
2019-03-23T09:38:42.240Z,15.20
2019-03-23T09:39:48.827Z,15.30
2019-03-23T09:40:55.465Z,15.30
2019-03-23T09:42:02.974Z,15.20
2019-03-23T09:43:09.508Z,15.40
2019-03-23T09:44:16.195Z,15.30
2019-03-23T09:45:23.870Z,15.10
2019-03-23T09:46:30.603Z,15.00
2019-03-23T09:47:37.337Z,15.30
2019-03-23T09:48:43.666Z,15.30
2019-03-23T09:49:49.993Z,15.80
2019-03-23T09:50:56.667Z,16.10
2019-03-23T09:52:03.581Z,16.40
2019-03-23T09:53:10.203Z,16.70
2019-03-23T09:54:16.774Z,16.70
2019-03-23T09:55:23.371Z,16.70
2019-03-23T09:56:30.333Z,17.10
2019-03-23T09:57:36.899Z,16.80
2019-03-23T09:58:43.613Z,16.30
2019-03-23T09:59:50.287Z,15.90
2019-03-23T10:00:56.586Z,15.40
2019-03-23T10:02:03.252Z,15.20
2019-03-23T10:03:09.940Z,15.20
2019-03-23T10:04:16.616Z,15.50
2019-03-23T10:05:23.218Z,15.90
2019-03-23T10:06:29.717Z,16.00
2019-03-23T10:07:36.388Z,16.30
2019-03-23T10:08:42.999Z,16.80
2019-03-23T10:09:49.570Z,17.30
2019-03-23T10:10:56.313Z,17.20
2019-03-23T10:12:02.957Z,16.90
2019-03-23T10:13:09.357Z,16.50
2019-03-23T10:14:15.914Z,16.10
2019-03-23T10:15:22.605Z,15.90
2019-03-23T10:16:29.166Z,15.50
2019-03-23T10:17:35.842Z,15.40
2019-03-23T10:18:42.364Z,15.30
2019-03-23T10:19:49.252Z,15.10
2019-03-23T10:20:56.409Z,15.20
2019-03-23T10:22:02.990Z,15.20
2019-03-23T10:23:09.773Z,15.20
2019-03-23T10:24:16.388Z,15.20
2019-03-23T10:25:22.812Z,15.20
2019-03-23T10:26:30.410Z,15.20
2019-03-23T10:27:36.991Z,15.20
2019-03-23T10:28:43.646Z,15.10
2019-03-23T10:29:50.267Z,15.10
2019-03-23T10:30:56.903Z,15.10
2019-03-23T10:32:03.447Z,15.00
2019-03-23T10:33:10.123Z,15.00
2019-03-23T10:34:16.723Z,15.10
2019-03-23T10:35:23.409Z,15.50
2019-03-23T10:36:29.887Z,15.90
2019-03-23T10:37:36.405Z,16.50
2019-03-23T10:38:42.946Z,18.30
2019-03-23T10:39:49.497Z,20.60
2019-03-23T10:40:56.188Z,22.60
2019-03-23T10:42:03.135Z,23.40
2019-03-23T10:43:09.748Z,24.20
2019-03-23T10:44:16.266Z,24.20
2019-03-23T10:45:23.008Z,25.20
2019-03-23T10:46:29.677Z,26.10
2019-03-23T10:47:36.415Z,27.00
2019-03-23T10:48:44.264Z,27.00
2019-03-23T10:49:51.200Z,26.90
2019-03-23T10:50:57.844Z,27.10
2019-03-23T10:52:04.464Z,27.20
2019-03-23T10:53:11.117Z,27.60
2019-03-23T10:54:17.822Z,28.10
2019-03-23T10:55:24.591Z,27.30
2019-03-23T10:56:31.199Z,27.30
2019-03-23T10:57:37.708Z,27.40
2019-03-23T10:58:44.243Z,27.40
2019-03-23T10:59:50.606Z,27.60
2019-03-23T11:00:56.891Z,27.90
2019-03-23T11:02:03.947Z,28.20
2019-03-23T11:03:10.536Z,29.00
2019-03-23T11:04:17.155Z,28.30
2019-03-23T11:05:23.782Z,28.70
2019-03-23T11:06:30.414Z,29.10
2019-03-23T11:07:36.978Z,29.70
2019-03-23T11:08:43.667Z,29.80
2019-03-23T11:09:50.282Z,30.20
2019-03-23T11:10:56.953Z,30.00
2019-03-23T11:12:03.476Z,30.00
2019-03-23T11:13:09.739Z,30.50
2019-03-23T11:14:16.377Z,30.90
2019-03-23T11:15:23.083Z,30.50
2019-03-23T11:16:29.744Z,31.80
2019-03-23T11:17:36.406Z,31.50
2019-03-23T11:18:43.210Z,30.40
2019-03-23T11:19:49.882Z,30.20
2019-03-23T11:20:56.567Z,30.50
2019-03-23T11:22:03.246Z,30.30
2019-03-23T11:23:19.009Z,30.40
2019-03-23T11:24:25.949Z,30.90
2019-03-23T11:25:32.670Z,30.70
2019-03-23T11:26:39.424Z,30.50
2019-03-23T11:27:46.068Z,30.80
2019-03-23T11:28:52.831Z,30.30
2019-03-23T11:29:59.586Z,31.60
2019-03-23T11:31:06.529Z,30.90
2019-03-23T11:32:13.128Z,30.40
2019-03-23T11:33:19.641Z,28.70
2019-03-23T11:34:26.127Z,27.80
2019-03-23T11:35:32.456Z,28.70
2019-03-23T11:36:39.036Z,29.10
2019-03-23T11:37:46.124Z,28.60
2019-03-23T11:38:52.880Z,29.00
2019-03-23T11:39:59.626Z,29.90
2019-03-23T11:41:06.482Z,30.30
2019-03-23T11:42:13.034Z,29.60
2019-03-23T11:43:19.712Z,29.80
2019-03-23T11:44:26.316Z,29.90
2019-03-23T11:45:33.048Z,29.70
2019-03-23T11:46:39.518Z,30.60
2019-03-23T11:47:45.817Z,30.70
2019-03-23T11:48:52.359Z,31.60
2019-03-23T11:49:59.096Z,31.10
2019-03-23T11:51:05.737Z,30.70
2019-03-23T11:52:13.344Z,30.80
2019-03-23T11:53:19.928Z,30.90
2019-03-23T11:54:26.697Z,30.50
2019-03-23T11:55:33.489Z,30.10
2019-03-23T11:56:40.004Z,30.40
2019-03-23T11:57:46.534Z,29.90
2019-03-23T11:58:54.083Z,29.60
2019-03-23T12:00:00.760Z,29.70
2019-03-23T12:01:07.455Z,29.70
2019-03-23T12:02:14.107Z,29.70
2019-03-23T12:03:20.587Z,29.60
2019-03-23T12:04:27.255Z,29.30
2019-03-23T12:05:33.835Z,29.30
2019-03-23T12:06:40.485Z,28.70
2019-03-23T12:07:47.123Z,28.70
2019-03-23T12:08:53.745Z,28.10
2019-03-23T12:10:00.514Z,27.60
2019-03-23T12:11:07.125Z,26.80
2019-03-23T12:12:13.504Z,27.10
2019-03-23T12:13:20.116Z,27.80
2019-03-23T12:14:26.905Z,27.90
2019-03-23T12:15:33.444Z,27.80
2019-03-23T12:16:40.252Z,27.40
2019-03-23T12:17:47.356Z,26.20
2019-03-23T12:18:54.046Z,25.30
2019-03-23T12:20:00.745Z,25.80
2019-03-23T12:21:07.317Z,27.00
2019-03-23T12:22:13.939Z,27.80
2019-03-23T12:23:20.613Z,28.70
2019-03-23T12:24:27.195Z,29.40
2019-03-23T12:25:33.790Z,30.00
2019-03-23T12:26:40.355Z,30.40
2019-03-23T12:27:47.297Z,29.40
2019-03-23T12:28:53.815Z,29.50
2019-03-23T12:30:07.089Z,28.30
2019-03-23T12:31:08.794Z,28.80
2019-03-23T12:32:15.537Z,30.10
2019-03-23T12:33:22.156Z,30.30
2019-03-23T12:34:29.647Z,29.30
2019-03-23T12:35:36.221Z,28.70
2019-03-23T12:36:42.696Z,29.50
2019-03-23T12:37:50.212Z,29.50
2019-03-23T12:38:56.815Z,30.20
2019-03-23T12:40:03.435Z,30.30
2019-03-23T12:41:22.333Z,30.40
2019-03-23T12:42:18.442Z,30.40
2019-03-23T12:43:24.990Z,30.80
2019-03-23T12:44:31.664Z,31.60
2019-03-23T12:45:38.917Z,31.40
2019-03-23T12:46:48.447Z,30.60
2019-03-23T12:47:53.395Z,29.80
2019-03-23T12:49:00.062Z,29.00
2019-03-23T12:50:08.019Z,27.80
2019-03-23T12:51:14.625Z,27.20
2019-03-23T12:52:21.238Z,27.00
2019-03-23T12:53:27.798Z,27.10
2019-03-23T12:54:34.437Z,27.90
2019-03-23T12:55:41.364Z,28.90
2019-03-23T12:56:47.938Z,28.90
2019-03-23T12:57:54.195Z,29.10
2019-03-23T12:59:01.021Z,29.20
2019-03-23T13:00:08.937Z,28.90
2019-03-23T13:01:15.756Z,26.60
2019-03-23T13:02:22.296Z,25.90
2019-03-23T13:03:28.953Z,25.80
2019-03-23T13:04:37.105Z,25.60
2019-03-23T13:05:44.932Z,25.30
2019-03-23T13:06:51.596Z,26.40
2019-03-23T13:07:58.124Z,27.20
2019-03-23T13:09:05.169Z,27.40
2019-03-23T13:10:12.108Z,27.80
2019-03-23T13:11:23.363Z,28.00
2019-03-23T13:12:26.888Z,28.20
2019-03-23T13:13:33.413Z,28.20
2019-03-23T13:14:40.284Z,28.40
2019-03-23T13:15:47.027Z,28.60
2019-03-23T13:16:53.727Z,29.10
2019-03-23T13:18:00.142Z,29.50
2019-03-23T13:19:06.839Z,29.40
2019-03-23T13:20:13.626Z,29.00
2019-03-23T13:21:19.965Z,29.00
2019-03-23T13:22:26.690Z,29.20
2019-03-23T13:23:33.669Z,29.20
2019-03-23T13:24:40.245Z,28.90
2019-03-23T13:25:47.130Z,28.00
2019-03-23T13:26:53.796Z,27.00
2019-03-23T13:28:00.736Z,27.30
2019-03-23T13:29:07.393Z,28.20
2019-03-23T13:30:14.328Z,28.40
2019-03-23T13:31:20.828Z,28.20
2019-03-23T13:32:27.146Z,28.40
2019-03-23T13:33:34.758Z,28.70
2019-03-23T13:34:41.440Z,28.30
2019-03-23T13:35:47.984Z,29.70
2019-03-23T13:36:54.505Z,29.70
2019-03-23T13:38:01.105Z,28.20
2019-03-23T13:39:08.448Z,25.70
2019-03-23T13:40:15.924Z,24.30
2019-03-23T13:41:22.433Z,23.70
2019-03-23T13:42:29.104Z,23.00
2019-03-23T13:43:35.586Z,22.50
2019-03-23T13:44:42.377Z,22.30
2019-03-23T13:45:49.035Z,22.40
2019-03-23T13:46:55.989Z,22.30
2019-03-23T13:48:02.633Z,22.20
2019-03-23T13:49:09.401Z,22.00
2019-03-23T13:50:20.534Z,22.00
2019-03-23T13:51:27.082Z,21.90
2019-03-23T13:52:33.769Z,21.80
2019-03-23T13:53:40.465Z,22.40
2019-03-23T13:54:46.773Z,23.10
2019-03-23T13:55:53.567Z,23.70
2019-03-23T13:57:00.307Z,23.60
2019-03-23T13:58:13.894Z,23.10
2019-03-23T13:59:20.568Z,23.70
2019-03-23T14:00:27.103Z,23.80
2019-03-23T14:01:33.729Z,23.80
2019-03-23T14:02:40.568Z,23.00
2019-03-23T14:03:47.171Z,23.30
2019-03-23T14:04:53.933Z,24.00
2019-03-23T14:06:00.264Z,24.10
2019-03-23T14:07:07.157Z,24.10
2019-03-23T14:08:13.609Z,24.10
2019-03-23T14:09:20.292Z,23.70
2019-03-23T14:10:28.094Z,23.50
2019-03-23T14:11:34.735Z,23.40
2019-03-23T14:12:41.408Z,23.10
2019-03-23T14:13:48.252Z,22.60
2019-03-23T14:14:54.685Z,22.70
2019-03-23T14:16:01.274Z,22.90
2019-03-23T14:17:07.608Z,23.20
2019-03-23T14:18:14.316Z,23.50
2019-03-23T14:19:21.978Z,24.00
2019-03-23T14:20:28.724Z,24.20
2019-03-23T14:21:35.313Z,24.50
2019-03-23T14:22:42.050Z,24.20
2019-03-23T14:23:48.926Z,23.60
2019-03-23T14:24:55.680Z,23.70
2019-03-23T14:26:02.202Z,23.60
2019-03-23T14:27:08.796Z,23.50
2019-03-23T14:28:15.672Z,23.00
2019-03-23T14:29:22.334Z,22.40
2019-03-23T14:30:28.913Z,22.40
2019-03-23T14:31:36.288Z,22.30
2019-03-23T14:32:42.956Z,21.70
2019-03-23T14:33:49.674Z,21.30
2019-03-23T14:34:56.153Z,21.10
2019-03-23T14:36:02.934Z,20.90